createdAt,value
2022-08-25T00:02:07.351Z,23.95
2022-08-25T00:04:36.214Z,23.95
2022-08-25T00:07:05.135Z,23.94
2022-08-25T00:09:34.140Z,23.94
2022-08-25T00:12:01.371Z,23.95
2022-08-25T00:14:31.296Z,23.94
2022-08-25T00:16:57.744Z,23.94
2022-08-25T00:19:28.226Z,23.93
2022-08-25T00:21:56.129Z,23.94
2022-08-25T00:24:24.441Z,23.94
2022-08-25T00:26:54.857Z,23.93
2022-08-25T00:29:23.000Z,23.93
2022-08-25T00:31:49.388Z,23.93
2022-08-25T00:34:19.805Z,23.93
2022-08-25T00:36:47.153Z,23.93
2022-08-25T00:39:14.151Z,23.92
2022-08-25T00:41:42.761Z,23.92
2022-08-25T00:44:17.376Z,23.91
2022-08-25T00:46:47.604Z,23.92
2022-08-25T00:49:25.414Z,23.91
2022-08-25T00:52:09.072Z,23.91
2022-08-25T00:54:42.517Z,23.91
2022-08-25T00:57:12.790Z,23.91
2022-08-25T00:59:40.374Z,23.91
2022-08-25T01:02:10.194Z,23.90
2022-08-25T01:04:42.855Z,23.91
2022-08-25T01:07:18.599Z,23.90
2022-08-25T01:09:46.667Z,23.90
2022-08-25T01:12:13.306Z,23.90
2022-08-25T01:14:39.975Z,23.90
2022-08-25T01:17:06.343Z,23.88
2022-08-25T01:19:33.504Z,23.88
2022-08-25T01:22:01.083Z,23.88
2022-08-25T01:24:44.512Z,23.88
2022-08-25T01:27:11.478Z,23.87
2022-08-25T01:29:39.364Z,23.88
2022-08-25T01:32:10.361Z,23.87
2022-08-25T01:34:41.064Z,23.86
2022-08-25T01:37:07.776Z,23.87
2022-08-25T01:39:38.431Z,23.87
2022-08-25T01:42:09.415Z,23.87
2022-08-25T01:44:39.668Z,23.86
2022-08-25T01:47:07.054Z,23.86
2022-08-25T01:49:33.994Z,23.85
2022-08-25T01:52:10.881Z,23.86
2022-08-25T01:54:37.235Z,23.85
2022-08-25T01:57:04.242Z,23.86
2022-08-25T01:59:30.622Z,23.84
2022-08-25T02:01:59.535Z,23.84
2022-08-25T02:04:26.873Z,23.85
2022-08-25T02:06:53.267Z,23.86
2022-08-25T02:09:19.626Z,23.85
2022-08-25T02:11:47.778Z,23.86
2022-08-25T02:14:15.538Z,23.86
2022-08-25T02:16:46.344Z,23.86
2022-08-25T02:19:12.854Z,23.86
2022-08-25T02:21:39.578Z,23.86
2022-08-25T02:24:06.917Z,23.85
2022-08-25T02:26:33.601Z,23.86
2022-08-25T02:29:00.842Z,23.85
2022-08-25T02:31:27.267Z,23.85
2022-08-25T02:33:54.768Z,23.86
2022-08-25T02:36:21.793Z,23.87
2022-08-25T02:38:48.776Z,23.86
2022-08-25T02:41:21.556Z,23.85
2022-08-25T02:43:52.102Z,23.85
2022-08-25T02:46:20.991Z,23.86
2022-08-25T02:48:48.338Z,23.85
2022-08-25T02:51:15.462Z,23.85
2022-08-25T02:53:45.872Z,23.85
2022-08-25T02:56:14.092Z,23.86
2022-08-25T02:58:41.731Z,23.86
2022-08-25T03:01:11.865Z,23.83
2022-08-25T03:03:43.714Z,23.86
2022-08-25T03:06:17.177Z,23.86
2022-08-25T03:08:44.498Z,23.87
2022-08-25T03:11:11.588Z,23.86
2022-08-25T03:13:38.454Z,23.86
2022-08-25T03:16:10.779Z,23.83
2022-08-25T03:18:39.868Z,23.85
2022-08-25T03:21:07.328Z,23.84
2022-08-25T03:23:34.316Z,23.84
2022-08-25T03:26:19.198Z,23.84
2022-08-25T03:28:45.630Z,23.85
2022-08-25T03:31:11.978Z,23.86
2022-08-25T03:33:38.430Z,23.85
2022-08-25T03:36:06.517Z,23.84
2022-08-25T03:38:32.957Z,23.83
2022-08-25T03:40:59.556Z,23.82
2022-08-25T03:43:25.954Z,23.77
2022-08-25T03:45:52.444Z,23.75
2022-08-25T03:48:19.201Z,23.72
2022-08-25T03:50:50.463Z,23.69
2022-08-25T03:53:19.488Z,23.66
2022-08-25T03:55:46.136Z,23.64
2022-08-25T03:58:12.565Z,23.61
2022-08-25T04:00:38.984Z,23.59
2022-08-25T04:03:05.750Z,23.57
2022-08-25T04:05:32.495Z,23.53
2022-08-25T04:08:01.456Z,23.50
2022-08-25T04:10:28.667Z,23.48
2022-08-25T04:12:55.877Z,23.47
2022-08-25T04:15:22.256Z,23.44
2022-08-25T04:17:48.606Z,23.44
2022-08-25T04:20:18.862Z,23.43
2022-08-25T04:22:45.340Z,23.41
2022-08-25T04:25:12.531Z,23.39
2022-08-25T04:27:38.922Z,23.37
2022-08-25T04:30:06.452Z,23.35
2022-08-25T04:32:33.289Z,23.35
2022-08-25T04:34:59.903Z,23.34
2022-08-25T04:37:26.399Z,23.35
2022-08-25T04:39:52.758Z,23.33
2022-08-25T04:42:19.168Z,23.33
2022-08-25T04:44:45.518Z,23.32
2022-08-25T04:47:12.193Z,23.32
2022-08-25T04:49:38.542Z,23.30
2022-08-25T04:52:04.912Z,23.29
2022-08-25T04:54:39.443Z,23.28
2022-08-25T04:57:06.747Z,23.26
2022-08-25T04:59:33.438Z,23.24
2022-08-25T05:02:03.008Z,23.23
2022-08-25T05:04:31.206Z,23.23
2022-08-25T05:06:57.950Z,23.22
2022-08-25T05:09:25.704Z,23.19
2022-08-25T05:11:53.455Z,23.19
2022-08-25T05:14:25.749Z,23.19
2022-08-25T05:16:54.366Z,23.19
2022-08-25T05:19:20.871Z,23.21
2022-08-25T05:21:47.794Z,23.21
2022-08-25T05:24:14.180Z,23.21
2022-08-25T05:26:40.703Z,23.22
2022-08-25T05:29:07.350Z,23.22
2022-08-25T05:31:36.364Z,23.23
2022-08-25T05:34:06.881Z,23.24
2022-08-25T05:36:34.124Z,23.24
2022-08-25T05:39:00.887Z,23.25
2022-08-25T05:41:30.142Z,23.25
2022-08-25T05:43:57.159Z,23.26
2022-08-25T05:46:24.195Z,23.25
2022-08-25T05:48:50.713Z,23.26
2022-08-25T05:51:18.597Z,23.25
2022-08-25T05:53:47.486Z,23.26
2022-08-25T05:56:14.526Z,23.27
2022-08-25T05:58:42.220Z,23.27
2022-08-25T06:01:28.334Z,23.26
2022-08-25T06:03:57.269Z,23.26
2022-08-25T06:06:24.494Z,23.26
2022-08-25T06:08:51.427Z,23.27
2022-08-25T06:11:17.807Z,23.27
2022-08-25T06:13:44.198Z,23.28
2022-08-25T06:16:10.644Z,23.28
2022-08-25T06:18:37.103Z,23.28
2022-08-25T06:21:14.428Z,23.30
2022-08-25T06:23:41.396Z,23.32
2022-08-25T06:26:13.144Z,23.32
2022-08-25T06:28:47.381Z,23.35
2022-08-25T06:31:14.034Z,23.31
2022-08-25T06:33:40.563Z,23.29
2022-08-25T06:36:07.552Z,23.26
2022-08-25T06:38:34.495Z,23.23
2022-08-25T06:41:06.216Z,23.23
2022-08-25T06:43:33.998Z,23.24
2022-08-25T06:46:11.843Z,23.26
2022-08-25T06:48:39.159Z,23.27
2022-08-25T06:51:14.130Z,23.28
2022-08-25T06:53:41.575Z,23.27
2022-08-25T06:56:08.336Z,23.28
2022-08-25T06:58:35.318Z,23.28
2022-08-25T07:01:31.952Z,23.29
2022-08-25T07:04:00.517Z,23.30
2022-08-25T07:06:29.181Z,23.30
2022-08-25T07:08:55.589Z,23.32
2022-08-25T07:11:22.212Z,23.33
2022-08-25T07:13:50.343Z,23.35
2022-08-25T07:16:20.178Z,23.36
2022-08-25T07:18:47.827Z,23.39
2022-08-25T07:21:14.952Z,23.40
2022-08-25T07:23:42.212Z,23.41
2022-08-25T07:26:36.650Z,23.43
2022-08-25T07:29:03.079Z,23.46
2022-08-25T07:31:30.056Z,23.47
2022-08-25T07:34:16.435Z,23.49
2022-08-25T07:36:43.341Z,23.51
2022-08-25T07:39:09.840Z,23.52
2022-08-25T07:41:39.464Z,23.55
2022-08-25T07:44:07.485Z,23.55
2022-08-25T07:46:34.163Z,23.57
2022-08-25T07:49:00.682Z,23.56
2022-08-25T07:53:53.625Z,23.57
2022-08-25T07:56:20.384Z,23.59
2022-08-25T07:58:47.712Z,23.59
2022-08-25T08:01:23.226Z,23.62
2022-08-25T08:03:51.653Z,23.62
2022-08-25T08:06:22.250Z,23.62
2022-08-25T08:08:50.285Z,23.63
2022-08-25T08:11:24.086Z,23.63
2022-08-25T08:13:50.858Z,23.64
2022-08-25T08:16:19.671Z,23.65
2022-08-25T08:18:47.077Z,23.65
2022-08-25T08:21:24.820Z,23.65
2022-08-25T08:23:55.507Z,23.66
2022-08-25T08:26:36.477Z,23.68
2022-08-25T08:29:08.432Z,23.69
2022-08-25T08:31:36.366Z,23.68
2022-08-25T08:34:02.875Z,23.70
2022-08-25T08:36:29.319Z,23.72
2022-08-25T08:38:56.408Z,23.73
2022-08-25T08:44:42.868Z,23.72
2022-08-25T08:47:27.997Z,23.73
2022-08-25T08:50:33.051Z,23.75
2022-08-25T08:53:15.175Z,23.77
2022-08-25T08:56:06.902Z,23.76
2022-08-25T08:58:41.824Z,23.76
2022-08-25T09:01:12.146Z,23.77
2022-08-25T09:03:43.927Z,23.76
2022-08-25T09:06:17.879Z,23.78
2022-08-25T09:08:45.078Z,23.80
2022-08-25T09:11:33.000Z,23.81
2022-08-25T09:14:30.899Z,23.81
2022-08-25T09:17:06.373Z,23.83
2022-08-25T09:20:03.014Z,23.81
2022-08-25T09:23:02.714Z,23.82
2022-08-25T09:25:53.137Z,23.82
2022-08-25T09:28:40.634Z,23.82
2022-08-25T09:31:24.351Z,23.82
2022-08-25T09:33:57.507Z,23.84
2022-08-25T09:36:24.897Z,23.85
2022-08-25T09:38:51.503Z,23.85
2022-08-25T09:41:43.444Z,23.86
2022-08-25T09:44:26.445Z,23.86
2022-08-25T09:47:21.732Z,23.87
2022-08-25T09:49:51.629Z,23.90
2022-08-25T09:52:32.849Z,23.90
2022-08-25T09:55:32.786Z,23.91
2022-08-25T09:58:00.774Z,23.92
2022-08-25T10:00:33.558Z,23.90
2022-08-25T10:03:24.663Z,23.92
2022-08-25T10:06:14.773Z,23.92
2022-08-25T10:08:56.113Z,23.92
2022-08-25T10:11:48.425Z,23.92
2022-08-25T10:14:26.236Z,23.93
2022-08-25T10:16:54.381Z,23.93
2022-08-25T10:19:29.281Z,23.94
2022-08-25T10:22:07.682Z,23.93
2022-08-25T10:24:35.331Z,23.93
2022-08-25T10:27:20.674Z,23.92
2022-08-25T10:29:56.839Z,23.93
2022-08-25T10:32:40.202Z,23.94
2022-08-25T10:35:14.269Z,23.94
2022-08-25T10:38:09.975Z,23.95
2022-08-25T10:40:46.052Z,23.95
2022-08-25T10:43:35.544Z,23.96
2022-08-25T10:46:10.237Z,23.97
2022-08-25T10:48:45.563Z,23.97
2022-08-25T10:51:26.042Z,23.98
2022-08-25T10:53:58.568Z,23.98
2022-08-25T10:56:27.352Z,23.98
2022-08-25T10:59:07.353Z,23.98
2022-08-25T11:01:53.674Z,24.01
2022-08-25T11:04:28.440Z,24.02
2022-08-25T11:07:10.360Z,24.02
2022-08-25T11:09:41.295Z,24.01
2022-08-25T11:12:19.119Z,24.00
2022-08-25T11:14:50.863Z,23.99
2022-08-25T11:17:23.886Z,24.00
2022-08-25T11:19:56.675Z,24.00
2022-08-25T11:22:29.788Z,23.99
2022-08-25T11:25:11.360Z,23.99
2022-08-25T11:27:48.303Z,24.00
2022-08-25T11:30:17.571Z,24.00
2022-08-25T11:32:50.553Z,24.01
2022-08-25T11:35:20.904Z,24.01
2022-08-25T11:38:13.283Z,24.01
2022-08-25T11:40:42.743Z,24.02
2022-08-25T11:43:36.927Z,24.03
2022-08-25T11:46:27.624Z,24.03
2022-08-25T11:49:07.786Z,24.04
2022-08-25T11:51:41.938Z,24.04
2022-08-25T11:54:35.748Z,24.04
2022-08-25T11:57:05.586Z,24.05
2022-08-25T11:59:50.267Z,24.05
2022-08-25T12:02:39.817Z,24.05
2022-08-25T12:05:28.893Z,24.05
2022-08-25T12:08:19.775Z,24.05
2022-08-25T12:11:11.442Z,24.05
2022-08-25T12:13:44.287Z,24.05
2022-08-25T12:16:35.756Z,24.05
2022-08-25T12:19:50.008Z,24.05
2022-08-25T12:22:16.274Z,24.04
2022-08-25T12:24:48.115Z,24.05
2022-08-25T12:27:33.975Z,24.04
2022-08-25T12:30:15.576Z,24.05
2022-08-25T12:32:50.776Z,24.05
2022-08-25T12:35:54.256Z,24.05
2022-08-25T12:38:27.647Z,24.06
2022-08-25T12:41:02.430Z,24.07
2022-08-25T12:43:50.136Z,24.07
2022-08-25T12:46:19.544Z,24.06
2022-08-25T12:49:04.431Z,24.06
2022-08-25T12:51:33.750Z,24.08
2022-08-25T12:54:23.936Z,24.09
2022-08-25T12:56:57.294Z,24.09
2022-08-25T12:59:35.976Z,24.10
2022-08-25T13:02:51.967Z,24.12
2022-08-25T13:05:36.521Z,24.11
2022-08-25T13:08:27.043Z,24.11
2022-08-25T13:11:11.387Z,24.11
2022-08-25T13:14:20.189Z,24.12
2022-08-25T13:17:00.802Z,24.13
2022-08-25T13:19:27.690Z,24.12
2022-08-25T13:22:13.860Z,24.13
2022-08-25T13:24:44.181Z,24.14
2022-08-25T13:27:27.123Z,24.16
2022-08-25T13:29:57.720Z,24.15
2022-08-25T13:32:31.971Z,24.15
2022-08-25T13:35:14.379Z,24.14
2022-08-25T13:37:40.985Z,24.16
2022-08-25T13:40:12.302Z,24.14
2022-08-25T13:42:42.802Z,24.15
2022-08-25T13:45:16.472Z,24.16
2022-08-25T13:47:45.337Z,24.15
2022-08-25T13:50:31.636Z,24.16
2022-08-25T13:53:05.293Z,24.15
2022-08-25T13:55:50.842Z,24.16
2022-08-25T13:58:24.460Z,24.17
2022-08-25T14:01:19.710Z,24.17
2022-08-25T14:03:50.475Z,24.17
2022-08-25T14:06:16.997Z,24.18
2022-08-25T14:09:06.808Z,24.20
2022-08-25T14:11:41.201Z,24.21
2022-08-25T14:14:12.432Z,24.19
2022-08-25T14:16:47.204Z,24.19
2022-08-25T14:19:23.628Z,24.19
2022-08-25T14:21:53.060Z,24.19
2022-08-25T14:24:23.693Z,24.19
2022-08-25T14:26:53.727Z,24.18
2022-08-25T14:29:21.984Z,24.18
2022-08-25T14:31:49.177Z,24.19
2022-08-25T14:34:22.394Z,24.19
2022-08-25T14:36:50.619Z,24.21
2022-08-25T14:39:17.963Z,24.22
2022-08-25T14:41:48.731Z,24.21
2022-08-25T14:44:19.902Z,24.22
2022-08-25T14:46:52.163Z,24.24
2022-08-25T14:49:25.342Z,24.23
2022-08-25T14:51:51.977Z,24.25
2022-08-25T14:54:27.243Z,24.25
2022-08-25T14:56:54.263Z,24.27
2022-08-25T14:59:20.607Z,24.26
2022-08-25T15:01:47.346Z,24.28
2022-08-25T15:04:23.266Z,24.29
2022-08-25T15:06:56.013Z,24.28
2022-08-25T15:09:22.614Z,24.28
2022-08-25T15:11:52.793Z,24.28
2022-08-25T15:14:28.986Z,24.27
2022-08-25T15:17:01.409Z,24.27
2022-08-25T15:19:28.731Z,24.26
2022-08-25T15:21:57.804Z,24.27
2022-08-25T15:24:26.638Z,24.27
2022-08-25T15:27:01.674Z,24.28
2022-08-25T15:29:31.055Z,24.27
2022-08-25T15:32:00.041Z,24.26
2022-08-25T15:34:26.492Z,24.26
2022-08-25T15:36:52.962Z,24.25
2022-08-25T15:39:19.683Z,24.26
2022-08-25T15:41:49.450Z,24.26
2022-08-25T15:44:16.617Z,24.27
2022-08-25T15:46:49.591Z,24.26
2022-08-25T15:49:20.725Z,24.26
2022-08-25T15:51:54.605Z,24.27
2022-08-25T15:54:26.571Z,24.27
2022-08-25T15:56:53.908Z,24.28
2022-08-25T15:59:21.655Z,24.28
2022-08-25T16:01:48.589Z,24.28
2022-08-25T16:04:14.944Z,24.28
2022-08-25T16:06:41.688Z,24.28
2022-08-25T16:09:08.203Z,24.31
2022-08-25T16:11:35.059Z,24.32
2022-08-25T16:14:02.039Z,24.32
2022-08-25T16:16:30.537Z,24.35
2022-08-25T16:18:57.940Z,24.37
2022-08-25T16:21:33.377Z,24.41
2022-08-25T16:24:07.405Z,24.43
2022-08-25T16:26:36.442Z,24.45
2022-08-25T16:29:06.559Z,24.45
2022-08-25T16:31:33.233Z,24.46
2022-08-25T16:34:01.381Z,24.45
2022-08-25T16:36:28.050Z,24.43
2022-08-25T16:38:57.504Z,24.42
2022-08-25T16:41:27.135Z,24.42
2022-08-25T16:43:54.095Z,24.40
2022-08-25T16:46:21.789Z,24.38
2022-08-25T16:48:50.435Z,24.39
2022-08-25T16:51:22.663Z,24.39
2022-08-25T16:54:11.451Z,24.40
2022-08-25T16:56:38.954Z,24.39
2022-08-25T16:59:07.267Z,24.40
2022-08-25T17:01:35.227Z,24.40
2022-08-25T17:04:03.155Z,24.40
2022-08-25T17:06:33.360Z,24.42
2022-08-25T17:08:59.709Z,24.39
2022-08-25T17:11:29.072Z,24.40
2022-08-25T17:13:58.696Z,24.43
2022-08-25T17:16:29.971Z,24.43
2022-08-25T17:19:00.746Z,24.42
2022-08-25T17:21:32.891Z,24.42
2022-08-25T17:23:59.746Z,24.40
2022-08-25T17:26:27.891Z,24.41
2022-08-25T17:28:56.815Z,24.41
2022-08-25T17:31:25.812Z,24.42
2022-08-25T17:33:55.003Z,24.41
2022-08-25T17:36:21.396Z,24.39
2022-08-25T17:38:53.778Z,24.40
2022-08-25T17:41:20.675Z,24.40
2022-08-25T17:43:47.351Z,24.40
2022-08-25T17:46:15.169Z,24.41
2022-08-25T17:48:43.880Z,24.42
2022-08-25T17:51:10.558Z,24.42
2022-08-25T17:53:38.402Z,24.42
2022-08-25T17:56:08.372Z,24.42
2022-08-25T17:58:36.245Z,24.42
2022-08-25T18:01:03.143Z,24.42
2022-08-25T18:03:29.612Z,24.42
2022-08-25T18:05:57.742Z,24.45
2022-08-25T18:08:29.246Z,24.44
2022-08-25T18:11:01.584Z,24.43
2022-08-25T18:13:28.420Z,24.42
2022-08-25T18:15:54.960Z,24.42
2022-08-25T18:18:21.319Z,24.39
2022-08-25T18:20:51.049Z,24.40
2022-08-25T18:23:19.438Z,24.38
2022-08-25T18:25:47.582Z,24.38
2022-08-25T18:28:14.010Z,24.38
2022-08-25T18:30:40.919Z,24.37
2022-08-25T18:33:08.163Z,24.37
2022-08-25T18:35:34.507Z,24.36
2022-08-25T18:38:19.610Z,24.35
2022-08-25T18:40:47.627Z,24.35
2022-08-25T18:43:14.675Z,24.34
2022-08-25T18:45:44.675Z,24.34
2022-08-25T18:48:11.236Z,24.33
2022-08-25T18:50:39.887Z,24.34
2022-08-25T18:53:07.069Z,24.34
2022-08-25T18:55:34.851Z,24.34
2022-08-25T18:58:01.327Z,24.33
2022-08-25T19:00:30.474Z,24.33
2022-08-25T19:02:59.857Z,24.34
2022-08-25T19:05:32.258Z,24.34
2022-08-25T19:08:06.044Z,24.36
2022-08-25T19:10:34.491Z,24.36
2022-08-25T19:13:08.167Z,24.37
2022-08-25T19:15:36.296Z,24.36
2022-08-25T19:18:05.005Z,24.36
2022-08-25T19:20:34.488Z,24.39
2022-08-25T19:23:01.976Z,24.39
2022-08-25T19:25:33.042Z,24.39
2022-08-25T19:28:02.689Z,24.37
2022-08-25T19:30:29.988Z,24.38
2022-08-25T19:32:57.604Z,24.38
2022-08-25T19:35:36.024Z,24.37
2022-08-25T19:38:07.165Z,24.37
2022-08-25T19:40:52.460Z,24.37
2022-08-25T19:43:19.239Z,24.38
2022-08-25T19:45:46.457Z,24.37
2022-08-25T19:48:13.916Z,24.38
2022-08-25T19:50:40.544Z,24.38
2022-08-25T19:53:06.992Z,24.37
2022-08-25T19:55:33.696Z,24.39
2022-08-25T19:58:00.555Z,24.37
2022-08-25T20:00:31.361Z,24.38
2022-08-25T20:03:00.392Z,24.38
2022-08-25T20:05:28.225Z,24.38
2022-08-25T20:07:56.379Z,24.38
2022-08-25T20:10:26.724Z,24.38
2022-08-25T20:12:55.839Z,24.38
2022-08-25T20:15:22.520Z,24.36
2022-08-25T20:17:50.085Z,24.38
2022-08-25T20:20:22.846Z,24.38
2022-08-25T20:22:50.051Z,24.37
2022-08-25T20:25:25.378Z,24.35
2022-08-25T20:27:55.593Z,24.35
2022-08-25T20:30:29.597Z,24.34
2022-08-25T20:32:58.070Z,24.36
2022-08-25T20:35:26.818Z,24.37
2022-08-25T20:37:54.597Z,24.35
2022-08-25T20:40:25.323Z,24.34
2022-08-25T20:42:52.607Z,24.34
2022-08-25T20:45:23.956Z,24.33
2022-08-25T20:47:51.014Z,24.33
2022-08-25T20:50:17.895Z,24.32
2022-08-25T20:52:44.253Z,24.33
2022-08-25T20:55:11.436Z,24.32
2022-08-25T20:57:38.455Z,24.32
2022-08-25T21:00:06.614Z,24.31
2022-08-25T21:02:33.734Z,24.31
2022-08-25T21:05:01.855Z,24.30
2022-08-25T21:07:28.716Z,24.30
2022-08-25T21:09:57.065Z,24.30
2022-08-25T21:12:23.852Z,24.29
2022-08-25T21:14:51.396Z,24.29
2022-08-25T21:17:19.199Z,24.29
2022-08-25T21:19:46.236Z,24.29
2022-08-25T21:22:12.579Z,24.27
2022-08-25T21:24:39.366Z,24.28
2022-08-25T21:27:06.165Z,24.27
2022-08-25T21:29:32.817Z,24.29
2022-08-25T21:31:59.787Z,24.28
2022-08-25T21:34:28.853Z,24.27
2022-08-25T21:36:57.723Z,24.27
2022-08-25T21:39:26.197Z,24.27
2022-08-25T21:41:53.660Z,24.28
2022-08-25T21:44:21.274Z,24.27
2022-08-25T21:46:54.062Z,24.26
2022-08-25T21:49:22.359Z,24.26
2022-08-25T21:51:59.240Z,24.26
2022-08-25T21:54:27.106Z,24.25
2022-08-25T21:56:59.704Z,24.25
2022-08-25T21:59:33.787Z,24.25
2022-08-25T22:02:03.473Z,24.24
2022-08-25T22:04:31.200Z,24.23
2022-08-25T22:06:58.186Z,24.22
2022-08-25T22:09:26.055Z,24.23
2022-08-25T22:11:55.515Z,24.23
2022-08-25T22:14:23.771Z,24.23
2022-08-25T22:16:50.479Z,24.24
2022-08-25T22:19:17.296Z,24.22
2022-08-25T22:21:44.051Z,24.22
2022-08-25T22:24:11.420Z,24.22
2022-08-25T22:26:38.552Z,24.20
2022-08-25T22:29:06.131Z,24.21
2022-08-25T22:31:33.797Z,24.21
2022-08-25T22:34:00.955Z,24.21
2022-08-25T22:36:32.540Z,24.21
2022-08-25T22:38:59.907Z,24.21
2022-08-25T22:41:28.579Z,24.21
2022-08-25T22:43:55.482Z,24.21
2022-08-25T22:46:23.082Z,24.20
2022-08-25T22:48:50.369Z,24.20
2022-08-25T22:51:24.366Z,24.20
2022-08-25T22:53:51.526Z,24.19
2022-08-25T22:56:29.510Z,24.19
2022-08-25T22:59:03.011Z,24.18
2022-08-25T23:01:31.846Z,24.18
2022-08-25T23:04:00.542Z,24.18
2022-08-25T23:06:28.745Z,24.18
2022-08-25T23:08:55.539Z,24.19
2022-08-25T23:11:23.793Z,24.19
2022-08-25T23:13:53.615Z,24.18
2022-08-25T23:16:22.109Z,24.19
2022-08-25T23:18:48.570Z,24.18
2022-08-25T23:21:37.957Z,24.18
2022-08-25T23:24:07.564Z,24.17
2022-08-25T23:26:34.487Z,24.18
2022-08-25T23:29:01.569Z,24.17
2022-08-25T23:31:30.149Z,24.17
2022-08-25T23:33:58.006Z,24.17
2022-08-25T23:36:25.275Z,24.17
2022-08-25T23:38:51.989Z,24.17
2022-08-25T23:41:22.638Z,24.17
2022-08-25T23:43:49.824Z,24.16
2022-08-25T23:46:18.698Z,24.16
2022-08-25T23:48:47.854Z,24.17
2022-08-25T23:51:23.876Z,24.15
2022-08-25T23:53:51.713Z,24.15
2022-08-25T23:56:18.118Z,24.15
2022-08-25T23:58:45.148Z,24.15
